createdAt,value
2023-05-14T00:01:51.876Z,10.36
2023-05-14T00:04:21.433Z,10.28
2023-05-14T00:06:49.309Z,10.17
2023-05-14T00:09:17.325Z,10.07
2023-05-14T00:11:46.086Z,10.02
2023-05-14T00:14:14.048Z,9.98
2023-05-14T00:16:42.002Z,9.95
2023-05-14T00:19:10.253Z,9.96
2023-05-14T00:21:39.862Z,9.96
2023-05-14T00:24:08.160Z,10.00
2023-05-14T00:26:36.181Z,9.99
2023-05-14T00:29:04.304Z,10.00
2023-05-14T00:31:32.382Z,10.00
2023-05-14T00:34:00.419Z,10.05
2023-05-14T00:36:28.550Z,10.11
2023-05-14T00:38:57.866Z,10.24
2023-05-14T00:41:25.984Z,10.33
2023-05-14T00:43:54.185Z,10.45
2023-05-14T00:46:22.642Z,10.57
2023-05-14T00:48:50.719Z,10.69
2023-05-14T00:51:19.773Z,10.81
2023-05-14T00:53:48.188Z,10.88
2023-05-14T00:56:18.294Z,10.89
2023-05-14T00:58:46.257Z,10.89
2023-05-14T01:01:15.363Z,10.91
2023-05-14T01:03:44.251Z,10.89
2023-05-14T01:06:18.277Z,10.85
2023-05-14T01:09:10.039Z,10.88
2023-05-14T01:11:48.495Z,10.95
2023-05-14T01:14:22.752Z,11.00
2023-05-14T01:16:54.164Z,11.07
2023-05-14T01:19:28.305Z,11.11
2023-05-14T01:21:57.592Z,11.14
2023-05-14T01:24:25.537Z,11.13
2023-05-14T01:26:55.044Z,11.17
2023-05-14T01:29:24.783Z,11.15
2023-05-14T01:31:56.586Z,11.14
2023-05-14T01:34:26.519Z,11.14
2023-05-14T01:36:54.959Z,11.13
2023-05-14T01:39:25.711Z,11.10
2023-05-14T01:41:54.568Z,11.08
2023-05-14T01:44:23.010Z,11.07
2023-05-14T01:46:51.032Z,11.06
2023-05-14T01:49:19.697Z,11.05
2023-05-14T01:51:47.726Z,11.04
2023-05-14T01:54:15.728Z,11.01
2023-05-14T01:56:45.088Z,10.98
2023-05-14T01:59:13.107Z,10.96
2023-05-14T02:01:41.330Z,10.92
2023-05-14T02:04:09.882Z,10.88
2023-05-14T02:06:37.964Z,10.87
2023-05-14T02:09:06.584Z,10.88
2023-05-14T02:11:34.713Z,10.93
2023-05-14T02:14:04.207Z,10.98
2023-05-14T02:16:32.344Z,11.05
2023-05-14T02:19:00.609Z,11.19
2023-05-14T02:21:28.681Z,11.41
2023-05-14T02:23:57.190Z,11.58
2023-05-14T02:26:25.228Z,11.60
2023-05-14T02:28:53.240Z,11.53
2023-05-14T02:31:22.795Z,11.44
2023-05-14T02:33:51.275Z,11.53
2023-05-14T02:36:19.448Z,11.56
2023-05-14T02:38:47.578Z,11.56
2023-05-14T02:41:15.752Z,11.65
2023-05-14T02:43:43.764Z,11.72
2023-05-14T02:46:11.722Z,11.80
2023-05-14T02:48:41.107Z,11.91
2023-05-14T02:51:09.423Z,11.90
2023-05-14T02:53:37.477Z,11.91
2023-05-14T02:56:06.024Z,11.98
2023-05-14T02:58:33.967Z,12.05
2023-05-14T03:01:01.929Z,11.96
2023-05-14T03:03:30.860Z,11.98
2023-05-14T03:06:00.666Z,12.00
2023-05-14T03:08:28.658Z,12.01
2023-05-14T03:10:56.776Z,11.97
2023-05-14T03:13:24.757Z,12.05
2023-05-14T03:15:55.084Z,12.03
2023-05-14T03:18:23.241Z,12.02
2023-05-14T03:20:51.279Z,12.00
2023-05-14T03:23:20.807Z,11.95
2023-05-14T03:25:48.653Z,11.93
2023-05-14T03:28:16.701Z,11.90
2023-05-14T03:30:44.724Z,11.95
2023-05-14T03:33:13.744Z,11.96
2023-05-14T03:35:41.758Z,11.97
2023-05-14T03:38:09.797Z,12.00
2023-05-14T03:40:39.150Z,12.16
2023-05-14T03:43:07.187Z,12.19
2023-05-14T03:45:35.185Z,12.20
2023-05-14T03:48:03.270Z,12.15
2023-05-14T03:50:31.401Z,12.16
2023-05-14T03:52:59.388Z,12.17
2023-05-14T03:55:27.336Z,12.21
2023-05-14T03:57:56.724Z,12.29
2023-05-14T04:00:25.178Z,12.31
2023-05-14T04:02:53.720Z,12.38
2023-05-14T04:05:21.916Z,12.39
2023-05-14T04:07:50.053Z,12.42
2023-05-14T04:10:18.059Z,12.47
2023-05-14T04:12:46.331Z,12.44
2023-05-14T04:15:15.931Z,12.46
2023-05-14T04:17:44.069Z,12.57
2023-05-14T04:20:12.451Z,12.70
2023-05-14T04:22:40.520Z,12.82
2023-05-14T04:25:09.321Z,12.99
2023-05-14T04:27:37.272Z,13.14
2023-05-14T04:30:06.625Z,13.29
2023-05-14T04:32:36.533Z,13.42
2023-05-14T04:35:05.426Z,13.57
2023-05-14T04:37:33.572Z,13.72
2023-05-14T04:40:01.798Z,13.84
2023-05-14T04:42:29.943Z,13.89
2023-05-14T04:44:58.384Z,14.02
2023-05-14T04:47:26.582Z,14.19
2023-05-14T04:49:56.014Z,14.33
2023-05-14T04:52:23.980Z,14.37
2023-05-14T04:54:52.155Z,14.39
2023-05-14T04:57:20.326Z,14.45
2023-05-14T04:59:48.567Z,14.51
2023-05-14T05:02:16.540Z,14.51
2023-05-14T05:04:44.655Z,14.45
2023-05-14T05:07:14.618Z,14.44
2023-05-14T05:09:42.725Z,14.51
2023-05-14T05:12:11.019Z,14.56
2023-05-14T05:14:38.983Z,14.63
2023-05-14T05:17:09.976Z,14.77
2023-05-14T05:19:43.734Z,14.99
2023-05-14T05:22:13.829Z,15.18
2023-05-14T05:24:42.011Z,15.40
2023-05-14T05:27:12.628Z,15.58
2023-05-14T05:29:40.736Z,15.75
2023-05-14T05:32:09.273Z,15.90
2023-05-14T05:34:37.436Z,15.99
2023-05-14T05:37:06.465Z,16.12
2023-05-14T05:39:36.044Z,16.24
2023-05-14T05:42:04.305Z,16.39
2023-05-14T05:44:32.525Z,16.51
2023-05-14T05:47:00.730Z,16.51
2023-05-14T05:49:29.139Z,16.55
2023-05-14T05:51:57.518Z,16.56
2023-05-14T05:54:27.223Z,16.58
2023-05-14T05:56:56.705Z,16.66
2023-05-14T05:59:25.771Z,16.77
2023-05-14T06:01:54.008Z,16.92
2023-05-14T06:04:25.287Z,16.99
2023-05-14T06:06:53.399Z,17.02
2023-05-14T06:09:21.448Z,16.95
2023-05-14T06:11:49.516Z,16.95
2023-05-14T06:14:18.856Z,17.04
2023-05-14T06:16:47.101Z,17.16
2023-05-14T06:19:15.302Z,17.30
2023-05-14T06:21:43.340Z,17.49
2023-05-14T06:24:13.295Z,17.53
2023-05-14T06:26:41.369Z,17.67
2023-05-14T06:29:09.321Z,17.79
2023-05-14T06:31:38.800Z,17.87
2023-05-14T06:34:06.958Z,17.97
2023-05-14T06:36:34.832Z,18.06
2023-05-14T06:39:03.616Z,18.13
2023-05-14T06:41:31.738Z,18.23
2023-05-14T06:43:59.712Z,18.36
2023-05-14T06:46:27.806Z,18.44
2023-05-14T06:48:59.305Z,18.48
2023-05-14T06:51:27.788Z,18.52
2023-05-14T06:53:56.515Z,18.66
2023-05-14T06:56:24.513Z,18.67
2023-05-14T06:58:52.464Z,18.70
2023-05-14T07:01:20.490Z,18.72
2023-05-14T07:03:48.570Z,18.66
2023-05-14T07:06:18.059Z,18.67
2023-05-14T07:08:46.786Z,18.76
2023-05-14T07:11:15.336Z,18.75
2023-05-14T07:13:44.697Z,18.78
2023-05-14T07:16:12.748Z,18.87
2023-05-14T07:18:41.033Z,18.61
2023-05-14T07:21:09.119Z,18.65
2023-05-14T07:23:38.502Z,18.88
2023-05-14T07:26:07.195Z,19.05
2023-05-14T07:28:35.486Z,18.85
2023-05-14T07:31:05.026Z,18.72
2023-05-14T07:33:33.177Z,18.88
2023-05-14T07:36:01.275Z,18.94
2023-05-14T07:38:29.557Z,19.10
2023-05-14T07:40:59.008Z,19.05
2023-05-14T07:43:27.435Z,19.18
2023-05-14T07:45:55.649Z,19.54
2023-05-14T07:48:23.717Z,19.90
2023-05-14T07:50:52.008Z,20.07
2023-05-14T07:53:19.973Z,20.20
2023-05-14T07:55:48.485Z,20.29
2023-05-14T07:58:17.771Z,20.31
2023-05-14T08:00:45.905Z,20.47
2023-05-14T08:03:14.036Z,20.60
2023-05-14T08:05:42.588Z,20.66
2023-05-14T08:08:10.723Z,20.98
2023-05-14T08:10:39.043Z,21.20
2023-05-14T08:13:07.146Z,21.34
2023-05-14T08:15:36.542Z,21.39
2023-05-14T08:18:04.761Z,21.31
2023-05-14T08:20:32.810Z,21.37
2023-05-14T08:23:00.725Z,21.33
2023-05-14T08:25:28.816Z,21.51
2023-05-14T08:27:56.929Z,21.38
2023-05-14T08:30:25.363Z,21.43
2023-05-14T08:32:55.314Z,21.45
2023-05-14T08:35:23.342Z,21.40
2023-05-14T08:37:52.242Z,21.24
2023-05-14T08:40:20.580Z,21.10
2023-05-14T08:42:49.170Z,21.03
2023-05-14T08:45:20.360Z,20.87
2023-05-14T08:47:50.563Z,20.77
2023-05-14T08:50:22.929Z,20.66
2023-05-14T08:52:51.672Z,20.49
2023-05-14T08:55:21.048Z,20.46
2023-05-14T08:57:50.577Z,20.43
2023-05-14T09:00:18.930Z,20.41
2023-05-14T09:02:48.906Z,20.56
2023-05-14T09:05:20.467Z,20.63
2023-05-14T09:07:48.511Z,20.64
2023-05-14T09:10:17.298Z,20.69
2023-05-14T09:12:45.552Z,20.77
2023-05-14T09:15:13.975Z,20.80
2023-05-14T09:17:42.178Z,20.76
2023-05-14T09:20:12.114Z,20.77
2023-05-14T09:22:41.535Z,20.67
2023-05-14T09:25:12.355Z,20.94
2023-05-14T09:27:43.281Z,21.25
2023-05-14T09:30:12.976Z,21.55
2023-05-14T09:32:44.074Z,21.88
2023-05-14T09:35:17.053Z,22.16
2023-05-14T09:37:47.856Z,22.34
2023-05-14T09:40:17.576Z,22.43
2023-05-14T09:42:45.864Z,22.46
2023-05-14T09:45:13.970Z,22.50
2023-05-14T09:47:42.130Z,22.48
2023-05-14T09:50:10.600Z,22.78
2023-05-14T09:52:39.400Z,23.03
2023-05-14T09:55:10.036Z,23.30
2023-05-14T09:57:37.958Z,23.33
2023-05-14T10:00:08.628Z,23.22
2023-05-14T10:02:40.650Z,23.35
2023-05-14T10:05:09.898Z,23.26
2023-05-14T10:07:41.675Z,22.99
2023-05-14T10:10:17.654Z,22.84
2023-05-14T10:12:52.145Z,22.74
2023-05-14T10:15:24.417Z,22.52
2023-05-14T10:17:57.935Z,22.44
2023-05-14T10:20:27.602Z,22.32
2023-05-14T10:22:55.588Z,22.28
2023-05-14T10:25:25.457Z,22.23
2023-05-14T10:27:53.979Z,22.32
2023-05-14T10:30:23.955Z,22.41
2023-05-14T10:33:07.628Z,22.54
2023-05-14T10:35:56.165Z,22.77
2023-05-14T10:38:27.197Z,22.97
2023-05-14T10:41:00.015Z,23.10
2023-05-14T10:43:30.766Z,23.18
2023-05-14T10:46:00.052Z,23.22
2023-05-14T10:48:28.476Z,23.13
2023-05-14T10:50:59.677Z,23.22
2023-05-14T10:53:35.258Z,23.26
2023-05-14T10:56:06.821Z,23.23
2023-05-14T10:58:37.293Z,23.21
2023-05-14T11:01:07.269Z,23.21
2023-05-14T11:03:42.111Z,23.11
2023-05-14T11:06:11.209Z,23.13
2023-05-14T11:08:39.938Z,23.05
2023-05-14T11:11:10.926Z,23.20
2023-05-14T11:13:39.504Z,23.46
2023-05-14T11:16:21.977Z,23.68
2023-05-14T11:18:55.844Z,23.99
2023-05-14T11:21:23.982Z,24.30
2023-05-14T11:23:51.969Z,24.56
2023-05-14T11:26:21.825Z,24.82
2023-05-14T11:28:50.480Z,24.77
2023-05-14T11:31:19.110Z,24.77
2023-05-14T11:33:47.391Z,24.84
2023-05-14T11:36:15.639Z,24.84
2023-05-14T11:38:51.531Z,24.79
2023-05-14T11:41:21.364Z,24.90
2023-05-14T11:43:51.102Z,25.09
2023-05-14T11:46:19.775Z,25.01
2023-05-14T11:48:48.301Z,25.15
2023-05-14T11:51:16.324Z,25.34
2023-05-14T11:53:44.336Z,25.50
2023-05-14T11:56:12.494Z,25.43
2023-05-14T11:58:40.957Z,25.57
2023-05-14T12:01:14.743Z,25.76
2023-05-14T12:03:42.964Z,26.00
2023-05-14T12:06:11.132Z,26.24
2023-05-14T12:08:39.119Z,26.31
2023-05-14T12:11:07.672Z,26.36
2023-05-14T12:13:37.507Z,26.56
2023-05-14T12:16:06.085Z,26.97
2023-05-14T12:18:35.690Z,27.37
2023-05-14T12:21:05.008Z,27.63
2023-05-14T12:23:33.866Z,27.75
2023-05-14T12:26:06.956Z,27.85
2023-05-14T12:28:38.025Z,27.85
2023-05-14T12:31:06.990Z,27.76
2023-05-14T12:33:36.429Z,27.54
2023-05-14T12:36:20.664Z,27.21
2023-05-14T12:38:50.060Z,26.83
2023-05-14T12:41:18.343Z,26.53
2023-05-14T12:43:48.665Z,26.25
2023-05-14T12:46:17.190Z,26.04
2023-05-14T12:48:47.336Z,25.96
2023-05-14T12:51:15.618Z,26.06
2023-05-14T12:53:43.859Z,26.23
2023-05-14T12:56:12.084Z,26.29
2023-05-14T12:58:40.200Z,26.30
2023-05-14T13:01:08.551Z,26.27
2023-05-14T13:03:36.649Z,26.27
2023-05-14T13:06:06.614Z,26.36
2023-05-14T13:08:34.640Z,26.62
2023-05-14T13:11:02.610Z,26.89
2023-05-14T13:13:30.633Z,27.23
2023-05-14T13:15:58.710Z,27.38
2023-05-14T13:18:27.253Z,27.43
2023-05-14T13:20:55.521Z,27.46
2023-05-14T13:23:25.309Z,27.52
2023-05-14T13:25:53.348Z,27.43
2023-05-14T13:28:21.285Z,27.24
2023-05-14T13:31:07.026Z,26.90
2023-05-14T13:33:37.308Z,26.55
2023-05-14T13:36:05.843Z,26.20
2023-05-14T13:38:35.393Z,25.82
2023-05-14T13:41:03.499Z,25.47
2023-05-14T13:43:32.115Z,25.25
2023-05-14T13:46:00.314Z,25.02
2023-05-14T13:48:28.873Z,24.82
2023-05-14T13:50:57.056Z,24.63
2023-05-14T13:53:26.085Z,24.58
2023-05-14T13:55:58.411Z,24.56
2023-05-14T13:58:26.690Z,24.75
2023-05-14T14:00:55.181Z,25.09
2023-05-14T14:03:23.189Z,25.47
2023-05-14T14:05:51.680Z,25.76
2023-05-14T14:08:24.032Z,25.97
2023-05-14T14:10:54.572Z,26.22
2023-05-14T14:13:24.434Z,26.56
2023-05-14T14:15:52.923Z,26.78
2023-05-14T14:18:21.042Z,26.98
2023-05-14T14:20:49.283Z,26.98
2023-05-14T14:23:17.212Z,26.86
2023-05-14T14:25:45.287Z,26.62
2023-05-14T14:28:13.684Z,26.40
2023-05-14T14:30:43.848Z,26.16
2023-05-14T14:33:12.504Z,25.83
2023-05-14T14:35:40.599Z,25.57
2023-05-14T14:38:08.608Z,25.40
2023-05-14T14:40:36.741Z,25.24
2023-05-14T14:43:04.809Z,25.05
2023-05-14T14:45:32.798Z,24.78
2023-05-14T14:48:28.373Z,24.57
2023-05-14T14:50:56.644Z,24.37
2023-05-14T14:53:25.548Z,24.18
2023-05-14T14:55:54.228Z,23.95
2023-05-14T14:58:22.521Z,23.74
2023-05-14T15:00:52.452Z,23.56
2023-05-14T15:03:20.857Z,23.32
2023-05-14T15:05:51.178Z,23.18
2023-05-14T15:08:19.216Z,23.07
2023-05-14T15:10:47.694Z,23.00
2023-05-14T15:13:15.701Z,22.95
2023-05-14T15:15:43.674Z,22.87
2023-05-14T15:18:11.947Z,22.83
2023-05-14T15:20:40.072Z,22.75
2023-05-14T15:23:11.650Z,22.68
2023-05-14T15:25:39.918Z,22.58
2023-05-14T15:28:08.265Z,22.47
2023-05-14T15:30:36.640Z,22.37
2023-05-14T15:33:04.764Z,22.33
2023-05-14T15:35:32.729Z,22.29
2023-05-14T15:38:00.795Z,22.21
2023-05-14T15:40:30.402Z,22.12
2023-05-14T15:42:58.437Z,22.09
2023-05-14T15:45:26.440Z,22.02
2023-05-14T15:47:54.730Z,22.00
2023-05-14T15:50:22.963Z,22.02
2023-05-14T15:52:51.328Z,22.09
2023-05-14T15:55:19.423Z,22.19
2023-05-14T15:57:48.779Z,22.34
2023-05-14T16:00:17.629Z,22.43
2023-05-14T16:02:45.717Z,22.51
2023-05-14T16:05:18.305Z,22.52
2023-05-14T16:07:46.558Z,22.45
2023-05-14T16:10:14.531Z,22.36
2023-05-14T16:12:42.607Z,22.26
2023-05-14T16:15:12.909Z,22.10
2023-05-14T16:17:41.059Z,21.95
2023-05-14T16:20:09.964Z,21.81
2023-05-14T16:22:37.888Z,21.69
2023-05-14T16:25:06.704Z,21.56
2023-05-14T16:27:35.547Z,21.47
2023-05-14T16:30:04.542Z,21.37
2023-05-14T16:32:33.920Z,21.29
2023-05-14T16:35:02.974Z,21.22
2023-05-14T16:37:32.085Z,21.16
2023-05-14T16:40:00.048Z,21.12
2023-05-14T16:42:28.237Z,21.07
2023-05-14T16:44:56.207Z,21.03
2023-05-14T16:47:24.256Z,20.99
2023-05-14T16:49:53.597Z,20.95
2023-05-14T16:52:21.685Z,20.89
2023-05-14T16:54:49.509Z,20.85
2023-05-14T16:57:17.519Z,20.81
2023-05-14T16:59:45.542Z,20.79
2023-05-14T17:02:13.602Z,20.74
2023-05-14T17:04:42.284Z,20.70
2023-05-14T17:07:11.757Z,20.66
2023-05-14T17:09:39.880Z,20.61
2023-05-14T17:12:09.680Z,20.55
2023-05-14T17:14:37.579Z,20.48
2023-05-14T17:17:06.092Z,20.37
2023-05-14T17:19:36.165Z,20.33
2023-05-14T17:22:05.879Z,20.26
2023-05-14T17:24:36.540Z,20.15
2023-05-14T17:27:04.865Z,20.07
2023-05-14T17:29:33.007Z,19.98
2023-05-14T17:32:01.207Z,19.89
2023-05-14T17:34:31.089Z,19.79
2023-05-14T17:36:59.192Z,19.65
2023-05-14T17:39:27.325Z,19.51
2023-05-14T17:41:58.693Z,19.40
2023-05-14T17:44:26.717Z,19.29
2023-05-14T17:46:54.870Z,19.18
2023-05-14T17:49:23.001Z,19.11
2023-05-14T17:51:50.975Z,19.01
2023-05-14T17:54:18.992Z,18.94
2023-05-14T17:56:48.181Z,18.88
2023-05-14T17:59:17.713Z,18.83
2023-05-14T18:01:45.735Z,18.86
2023-05-14T18:04:13.758Z,18.82
2023-05-14T18:06:41.717Z,18.81
2023-05-14T18:09:09.632Z,18.82
2023-05-14T18:11:37.615Z,18.82
2023-05-14T18:14:05.690Z,18.81
2023-05-14T18:16:35.150Z,18.80
2023-05-14T18:19:03.396Z,18.81
2023-05-14T18:21:31.617Z,18.80
2023-05-14T18:23:59.700Z,18.76
2023-05-14T18:26:27.803Z,18.70
2023-05-14T18:28:55.864Z,18.65
2023-05-14T18:31:23.818Z,18.61
2023-05-14T18:33:53.269Z,18.58
2023-05-14T18:36:21.374Z,18.52
2023-05-14T18:38:49.425Z,18.48
2023-05-14T18:41:17.425Z,18.43
2023-05-14T18:43:45.580Z,18.38
2023-05-14T18:46:13.698Z,18.31
2023-05-14T18:48:41.872Z,18.25
2023-05-14T18:51:12.416Z,18.17
2023-05-14T18:53:40.551Z,18.12
2023-05-14T18:56:09.550Z,18.10
2023-05-14T18:58:37.554Z,18.04
2023-05-14T19:01:05.494Z,17.98
2023-05-14T19:03:33.831Z,17.89
2023-05-14T19:06:01.930Z,17.81
2023-05-14T19:08:31.193Z,17.76
2023-05-14T19:10:59.308Z,17.74
2023-05-14T19:13:30.319Z,17.76
2023-05-14T19:15:58.342Z,17.76
2023-05-14T19:18:26.454Z,17.73
2023-05-14T19:20:56.614Z,17.67
2023-05-14T19:23:24.764Z,17.57
2023-05-14T19:25:54.252Z,17.59
2023-05-14T19:28:22.427Z,17.59
2023-05-14T19:30:51.325Z,17.48
2023-05-14T19:33:19.380Z,17.61
2023-05-14T19:35:47.743Z,17.68
2023-05-14T19:38:15.788Z,17.63
2023-05-14T19:40:45.017Z,17.63
2023-05-14T19:43:14.636Z,17.60
2023-05-14T19:45:42.854Z,17.64
2023-05-14T19:48:12.497Z,17.62
2023-05-14T19:50:41.528Z,17.57
2023-05-14T19:53:09.555Z,17.46
2023-05-14T19:55:37.560Z,17.39
2023-05-14T19:58:05.667Z,17.33
2023-05-14T20:00:37.062Z,17.25
2023-05-14T20:03:05.950Z,17.13
2023-05-14T20:05:36.164Z,17.01
2023-05-14T20:08:06.598Z,16.93
2023-05-14T20:10:34.781Z,16.91
2023-05-14T20:13:02.710Z,16.93
2023-05-14T20:15:31.245Z,16.96
2023-05-14T20:18:01.042Z,16.96
2023-05-14T20:20:32.996Z,16.88
2023-05-14T20:23:01.585Z,16.75
2023-05-14T20:25:29.746Z,16.66
2023-05-14T20:27:58.098Z,16.55
2023-05-14T20:30:26.281Z,16.47
2023-05-14T20:32:54.445Z,16.39
2023-05-14T20:35:24.084Z,16.33
2023-05-14T20:37:52.497Z,16.26
2023-05-14T20:40:21.445Z,16.20
2023-05-14T20:42:50.699Z,16.12
2023-05-14T20:45:18.773Z,16.04
2023-05-14T20:47:46.731Z,15.96
2023-05-14T20:50:14.885Z,15.85
2023-05-14T20:52:44.325Z,15.81
2023-05-14T20:55:13.362Z,15.76
2023-05-14T20:57:43.577Z,15.75
2023-05-14T21:00:13.252Z,15.75
2023-05-14T21:02:41.496Z,15.76
2023-05-14T21:05:09.829Z,15.75
2023-05-14T21:07:39.348Z,15.75
2023-05-14T21:10:10.143Z,15.75
2023-05-14T21:12:38.232Z,15.72
2023-05-14T21:15:07.038Z,15.71
2023-05-14T21:17:35.027Z,15.65
2023-05-14T21:20:03.147Z,15.56
2023-05-14T21:22:31.109Z,15.49
2023-05-14T21:24:59.146Z,15.46
2023-05-14T21:27:28.552Z,15.42
2023-05-14T21:29:56.512Z,15.38
2023-05-14T21:32:24.588Z,15.35
2023-05-14T21:34:52.620Z,15.33
2023-05-14T21:37:20.922Z,15.29
2023-05-14T21:39:49.084Z,15.24
2023-05-14T21:42:17.757Z,15.19
2023-05-14T21:44:47.071Z,15.14
2023-05-14T21:47:15.084Z,15.09
2023-05-14T21:49:43.149Z,15.05
2023-05-14T21:52:11.273Z,15.02
2023-05-14T21:54:39.241Z,14.96
2023-05-14T21:57:07.553Z,14.91
2023-05-14T21:59:36.296Z,14.86
2023-05-14T22:02:07.846Z,14.82
2023-05-14T22:04:36.392Z,14.79
2023-05-14T22:07:04.584Z,14.77
2023-05-14T22:09:32.608Z,14.76
2023-05-14T22:12:00.775Z,14.72
2023-05-14T22:14:28.809Z,14.66
2023-05-14T22:16:57.643Z,14.59
2023-05-14T22:19:27.847Z,14.55
2023-05-14T22:21:56.092Z,14.52
2023-05-14T22:24:24.110Z,14.47
2023-05-14T22:26:52.263Z,14.45
2023-05-14T22:29:20.244Z,14.40
2023-05-14T22:31:48.363Z,14.36
2023-05-14T22:34:16.482Z,14.34
2023-05-14T22:36:45.893Z,14.29
2023-05-14T22:39:14.085Z,14.23
2023-05-14T22:41:42.062Z,14.22
2023-05-14T22:44:10.233Z,14.22
2023-05-14T22:46:38.459Z,14.19
2023-05-14T22:49:06.480Z,14.15
2023-05-14T22:51:34.441Z,14.09
2023-05-14T22:54:04.049Z,14.07
2023-05-14T22:56:32.263Z,14.07
2023-05-14T22:59:01.130Z,14.04
2023-05-14T23:01:29.762Z,14.02
2023-05-14T23:03:57.832Z,14.00
2023-05-14T23:06:26.481Z,13.98
2023-05-14T23:08:54.479Z,13.98
2023-05-14T23:11:23.850Z,13.98
2023-05-14T23:13:51.878Z,13.98
2023-05-14T23:16:20.467Z,13.96
2023-05-14T23:18:48.574Z,13.94
2023-05-14T23:21:16.774Z,13.92
2023-05-14T23:23:45.445Z,13.93
2023-05-14T23:26:13.588Z,13.93
2023-05-14T23:28:42.856Z,13.91
2023-05-14T23:31:10.900Z,13.91
2023-05-14T23:33:39.865Z,13.89
2023-05-14T23:36:08.925Z,13.85
2023-05-14T23:38:37.175Z,13.83
2023-05-14T23:41:05.379Z,13.83
2023-05-14T23:43:33.875Z,13.83
2023-05-14T23:46:03.975Z,13.77
2023-05-14T23:48:32.230Z,13.75
2023-05-14T23:51:00.125Z,13.72
2023-05-14T23:53:28.217Z,13.69
2023-05-14T23:55:56.579Z,13.68
2023-05-14T23:58:24.800Z,13.65
